Time;durP1;ratioP1;P1;durP2;ratioP2;P2;SDS_P1;SDS_P2;PMS_P1;PMS_P2;Temp;Humidity;BMP_temperature;BMP_pressure;BME280_temperature;BME280_humidity;BME280_pressure;Samples;Min_cycle;Max_cycle;Signal;HPM_P1;HPM_P2
2021/10/26 00:01:46;;;;;;;24.30;5.93;;;3.20;97.50;;;;;;4903241;29;20138;-68
2021/10/26 00:04:11;;;;;;;6.03;4.68;;;3.00;97.10;;;;;;4909457;29;20494;-67
2021/10/26 00:06:38;;;;;;;7.60;5.20;;;2.90;97.30;;;;;;4907996;29;20313;-67
2021/10/26 00:09:05;;;;;;;10.60;6.05;;;3.00;97.30;;;;;;4908368;29;20043;-67
2021/10/26 00:11:31;;;;;;;22.75;5.22;;;3.00;97.30;;;;;;4896726;29;20532;-67
2021/10/26 00:13:56;;;;;;;7.57;4.82;;;3.00;97.60;;;;;;4922487;29;20040;-68
2021/10/26 00:16:22;;;;;;;7.38;4.85;;;3.00;97.30;;;;;;4905931;29;20083;-67
2021/10/26 00:18:48;;;;;;;7.00;5.07;;;3.00;96.60;;;;;;4903724;29;20050;-67
2021/10/26 00:21:13;;;;;;;11.90;6.07;;;3.00;96.20;;;;;;4901334;29;20024;-68
2021/10/26 00:23:40;;;;;;;11.82;4.90;;;3.00;95.20;;;;;;4910756;29;20091;-67
2021/10/26 00:26:06;;;;;;;97.22;9.20;;;2.90;94.70;;;;;;4894208;29;22457;-67
2021/10/26 00:28:33;;;;;;;16.20;5.53;;;2.80;94.10;;;;;;4901642;29;20242;-67
2021/10/26 00:30:59;;;;;;;29.60;6.25;;;2.80;94.60;;;;;;4893670;29;20048;-68
2021/10/26 00:33:25;;;;;;;9.68;5.20;;;2.70;94.70;;;;;;4894705;29;20040;-67
2021/10/26 00:35:51;;;;;;;6.28;5.00;;;2.70;95.80;;;;;;4911729;29;20428;-67
2021/10/26 00:38:17;;;;;;;7.30;5.15;;;2.60;95.30;;;;;;4907593;29;20040;-67
2021/10/26 00:40:43;;;;;;;7.53;4.60;;;2.60;95.20;;;;;;4893984;29;20031;-67
2021/10/26 00:43:09;;;;;;;7.70;4.90;;;2.60;95.80;;;;;;4909062;29;20043;-67
2021/10/26 00:45:35;;;;;;;5.65;4.72;;;2.60;95.60;;;;;;4907936;29;20085;-68
2021/10/26 00:48:02;;;;;;;8.57;5.00;;;2.50;95.90;;;;;;4920544;29;20079;-67
2021/10/26 00:50:28;;;;;;;7.25;4.45;;;2.50;96.10;;;;;;4905159;29;20028;-67
2021/10/26 00:52:53;;;;;;;8.13;5.57;;;2.50;95.50;;;;;;4906666;29;20370;-67
2021/10/26 00:55:19;;;;;;;7.30;4.28;;;2.50;95.60;;;;;;4906698;29;20040;-69
2021/10/26 00:57:45;;;;;;;7.22;4.88;;;2.40;96.20;;;;;;4890310;29;20620;-67
2021/10/26 01:00:15;;;;;;;7.75;4.68;;;2.40;96.10;;;;;;4921545;29;20412;-67
2021/10/26 01:02:42;;;;;;;6.00;4.63;;;2.40;96.30;;;;;;4900258;29;20063;-66
2021/10/26 01:05:08;;;;;;;8.35;5.07;;;2.50;96.10;;;;;;4903998;29;20115;-66
2021/10/26 01:07:35;;;;;;;6.75;4.65;;;2.40;95.80;;;;;;4908492;29;20028;-66
2021/10/26 01:10:01;;;;;;;8.40;4.80;;;2.30;95.70;;;;;;4909129;29;20050;-66
2021/10/26 01:12:29;;;;;;;4.68;4.18;;;2.40;95.90;;;;;;4904565;29;20039;-66
2021/10/26 01:14:55;;;;;;;8.00;4.93;;;2.40;95.60;;;;;;4911597;29;20506;-66
2021/10/26 01:17:24;;;;;;;5.55;4.25;;;2.40;95.80;;;;;;4905095;29;20075;-66
2021/10/26 01:19:52;;;;;;;8.52;5.03;;;2.30;96.00;;;;;;4898181;29;20163;-66
2021/10/26 01:22:20;;;;;;;6.93;5.03;;;2.30;96.00;;;;;;4901816;29;20032;-66
2021/10/26 01:24:46;;;;;;;8.10;4.83;;;2.30;96.00;;;;;;4909143;29;20032;-66
2021/10/26 01:27:12;;;;;;;6.07;4.68;;;2.20;96.50;;;;;;4902178;29;20035;-66
2021/10/26 01:29:38;;;;;;;8.95;5.22;;;2.20;96.40;;;;;;4904869;29;20036;-66
2021/10/26 01:32:06;;;;;;;4.95;4.15;;;2.10;96.20;;;;;;4902151;28;20036;-66
2021/10/26 01:34:31;;;;;;;7.03;5.03;;;2.10;96.20;;;;;;4910032;29;20405;-66
2021/10/26 01:37:03;;;;;;;8.95;4.93;;;2.20;96.60;;;;;;4909504;29;20284;-66
2021/10/26 01:39:29;;;;;;;6.38;4.70;;;2.30;96.30;;;;;;4910363;29;20039;-67
2021/10/26 01:41:56;;;;;;;7.40;4.95;;;2.30;96.20;;;;;;4903931;29;20021;-66
2021/10/26 01:44:22;;;;;;;6.43;4.85;;;2.30;96.10;;;;;;4908112;29;20032;-66
2021/10/26 01:46:48;;;;;;;6.18;4.90;;;2.30;96.20;;;;;;4895976;29;20036;-66
2021/10/26 01:49:14;;;;;;;7.80;5.10;;;2.30;96.80;;;;;;4896853;29;20036;-66
2021/10/26 01:51:40;;;;;;;8.45;5.28;;;2.30;97.30;;;;;;4892939;29;20040;-66
2021/10/26 01:54:05;;;;;;;8.82;5.13;;;2.30;97.50;;;;;;4898165;29;20482;-67
2021/10/26 01:56:32;;;;;;;7.75;5.18;;;2.30;98.20;;;;;;4901000;29;20028;-66
2021/10/26 01:58:57;;;;;;;8.73;6.03;;;2.30;98.50;;;;;;4899827;29;20047;-67
2021/10/26 02:01:23;;;;;;;11.02;5.57;;;2.30;98.60;;;;;;4901218;28;20036;-67
2021/10/26 02:03:49;;;;;;;8.30;5.72;;;2.30;98.50;;;;;;4910446;29;20032;-66
2021/10/26 02:06:15;;;;;;;12.20;5.90;;;2.30;98.20;;;;;;4912996;29;20036;-66
2021/10/26 02:08:40;;;;;;;8.40;4.70;;;2.30;97.90;;;;;;4899544;29;20121;-66
2021/10/26 02:11:06;;;;;;;10.07;5.50;;;2.40;97.80;;;;;;4898779;29;20043;-66
2021/10/26 02:13:32;;;;;;;5.57;4.97;;;2.40;97.80;;;;;;4894843;29;20653;-66
2021/10/26 02:15:57;;;;;;;8.45;5.88;;;2.40;97.90;;;;;;4897971;29;20060;-66
2021/10/26 02:18:23;;;;;;;8.13;5.35;;;2.40;97.40;;;;;;4897234;29;20044;-66
2021/10/26 02:20:49;;;;;;;12.18;4.32;;;2.30;96.90;;;;;;4900476;29;20040;-66
2021/10/26 02:23:16;;;;;;;10.75;5.50;;;2.20;97.00;;;;;;4909085;29;20378;-66
2021/10/26 02:25:42;;;;;;;8.82;4.72;;;2.20;97.10;;;;;;4915151;29;20171;-66
2021/10/26 02:28:08;;;;;;;8.02;5.40;;;2.20;97.70;;;;;;4901129;29;22285;-66
2021/10/26 02:30:33;;;;;;;13.10;6.05;;;2.20;98.30;;;;;;4897812;29;20040;-66
2021/10/26 02:32:59;;;;;;;10.65;6.45;;;2.20;98.30;;;;;;4899308;29;20036;-66
2021/10/26 02:35:25;;;;;;;8.75;5.22;;;2.20;98.00;;;;;;4903009;29;20024;-66
2021/10/26 02:37:50;;;;;;;9.05;5.13;;;2.20;97.80;;;;;;4897841;29;20735;-66
2021/10/26 02:40:16;;;;;;;9.07;5.25;;;2.20;97.10;;;;;;4900469;29;21003;-66
2021/10/26 02:42:41;;;;;;;9.02;5.07;;;2.20;96.60;;;;;;4902599;29;20027;-66
2021/10/26 02:45:08;;;;;;;8.60;5.30;;;2.20;96.10;;;;;;4904068;29;20030;-66
2021/10/26 02:47:34;;;;;;;6.38;4.47;;;2.20;96.10;;;;;;4898981;29;20025;-67
2021/10/26 02:50:00;;;;;;;6.95;5.50;;;2.10;95.70;;;;;;4896590;29;20036;-66
2021/10/26 02:52:26;;;;;;;6.88;5.25;;;2.10;96.00;;;;;;4899602;29;20908;-66
2021/10/26 02:54:51;;;;;;;8.82;5.53;;;2.10;96.80;;;;;;4899438;29;20038;-67
2021/10/26 02:57:17;;;;;;;5.88;4.38;;;2.10;96.90;;;;;;4902796;29;20403;-66
2021/10/26 02:59:43;;;;;;;9.90;5.72;;;2.10;96.90;;;;;;4900634;29;20060;-66
2021/10/26 03:02:08;;;;;;;7.93;4.97;;;2.10;96.60;;;;;;4900130;29;20036;-66
2021/10/26 03:04:34;;;;;;;7.47;5.50;;;2.10;96.80;;;;;;4902540;29;20043;-66
2021/10/26 03:07:00;;;;;;;7.97;5.00;;;2.00;97.00;;;;;;4896950;29;22228;-66
2021/10/26 03:09:27;;;;;;;8.50;5.20;;;2.00;97.40;;;;;;4900502;29;20039;-66
2021/10/26 03:11:52;;;;;;;9.45;5.63;;;2.10;97.40;;;;;;4895648;29;20036;-66
2021/10/26 03:14:18;;;;;;;11.25;6.15;;;2.00;97.70;;;;;;4895868;29;20378;-67
2021/10/26 03:16:44;;;;;;;8.90;5.63;;;2.00;98.20;;;;;;4897116;29;20032;-67
2021/10/26 03:19:09;;;;;;;6.88;4.63;;;2.00;98.10;;;;;;4895064;29;20040;-66
2021/10/26 03:21:37;;;;;;;8.13;5.43;;;2.00;97.90;;;;;;4896120;29;20110;-66
2021/10/26 03:24:03;;;;;;;9.25;5.32;;;2.00;97.80;;;;;;4903209;29;20113;-66
2021/10/26 03:26:29;;;;;;;9.95;5.97;;;2.00;97.80;;;;;;4897983;29;20224;-66
2021/10/26 03:28:55;;;;;;;7.50;5.43;;;2.00;98.30;;;;;;4900827;29;20036;-66
2021/10/26 03:31:21;;;;;;;6.88;4.78;;;2.00;98.20;;;;;;4899794;29;20044;-66
2021/10/26 03:33:47;;;;;;;9.10;5.32;;;2.10;97.90;;;;;;4896758;29;20410;-66
2021/10/26 03:36:13;;;;;;;8.75;5.15;;;2.10;98.10;;;;;;4894946;29;20044;-66
2021/10/26 03:38:41;;;;;;;6.78;4.60;;;2.10;98.00;;;;;;4899486;29;20032;-66
2021/10/26 03:41:06;;;;;;;6.70;4.75;;;2.10;97.70;;;;;;4900494;29;20023;-66
2021/10/26 03:43:32;;;;;;;9.45;6.13;;;2.10;97.70;;;;;;4893602;29;20039;-67
2021/10/26 03:45:58;;;;;;;9.30;5.25;;;2.00;98.10;;;;;;4897733;29;20036;-66
2021/10/26 03:48:23;;;;;;;11.52;5.95;;;2.00;98.20;;;;;;4895654;29;20032;-66
2021/10/26 03:50:49;;;;;;;8.85;6.28;;;2.10;98.30;;;;;;4897222;29;20064;-66
2021/10/26 03:53:15;;;;;;;10.13;4.93;;;2.00;97.60;;;;;;4899152;29;20044;-66
2021/10/26 03:55:41;;;;;;;10.10;5.93;;;2.00;97.50;;;;;;4894961;29;20042;-67
2021/10/26 03:58:07;;;;;;;7.78;5.85;;;2.10;97.70;;;;;;4895386;29;20039;-67
2021/10/26 04:00:33;;;;;;;7.78;5.30;;;2.00;97.80;;;;;;4895705;29;20035;-66
2021/10/26 04:02:59;;;;;;;7.75;5.60;;;2.00;97.90;;;;;;4897302;29;20032;-67
2021/10/26 04:06:07;;;;;;;9.00;5.85;;;2.00;97.80;;;;;;4898428;29;20024;-66
2021/10/26 04:10:57;;;;;;;9.07;5.38;;;1.90;96.30;;;;;;4898605;29;20032;-67
2021/10/26 04:13:24;;;;;;;7.30;4.90;;;1.80;97.40;;;;;;4900380;29;22122;-66
2021/10/26 04:15:50;;;;;;;7.70;5.32;;;1.80;98.30;;;;;;4897363;29;20515;-66
2021/10/26 04:18:16;;;;;;;13.10;6.03;;;1.80;98.20;;;;;;4896694;29;20028;-67
2021/10/26 04:20:42;;;;;;;7.45;4.97;;;1.80;98.50;;;;;;4891157;29;20091;-66
2021/10/26 04:23:08;;;;;;;8.15;5.05;;;1.80;98.50;;;;;;4898621;29;20032;-67
2021/10/26 04:25:34;;;;;;;8.15;4.50;;;1.80;97.90;;;;;;4899829;29;20556;-66
2021/10/26 04:28:01;;;;;;;6.28;4.40;;;1.80;97.70;;;;;;4899548;29;20035;-66
2021/10/26 04:30:27;;;;;;;12.13;5.72;;;1.70;98.60;;;;;;4897964;29;20126;-67
2021/10/26 04:32:52;;;;;;;9.60;5.32;;;1.70;99.40;;;;;;4894579;29;20032;-66
2021/10/26 04:35:18;;;;;;;10.68;5.38;;;1.70;99.60;;;;;;4896254;29;20040;-66
2021/10/26 04:37:44;;;;;;;8.30;5.45;;;1.80;99.60;;;;;;4902911;29;20036;-66
2021/10/26 04:40:10;;;;;;;7.63;4.90;;;1.70;99.50;;;;;;4901742;29;20032;-66
2021/10/26 04:42:36;;;;;;;8.52;5.25;;;1.80;99.40;;;;;;4897065;29;20036;-66
2021/10/26 04:45:04;;;;;;;8.05;4.82;;;1.80;98.80;;;;;;4894485;29;20024;-66
2021/10/26 04:47:29;;;;;;;6.28;4.30;;;1.70;98.90;;;;;;4899342;29;20031;-66
2021/10/26 04:49:55;;;;;;;9.10;5.57;;;1.80;99.80;;;;;;4907162;29;20032;-66
2021/10/26 04:52:22;;;;;;;19.88;6.13;;;1.80;99.90;;;;;;4909191;29;20482;-67
2021/10/26 04:54:47;;;;;;;8.40;5.57;;;1.90;99.90;;;;;;4908219;29;20032;-66
2021/10/26 04:57:13;;;;;;;9.95;5.07;;;1.90;99.90;;;;;;4902795;29;20040;-67
2021/10/26 04:59:39;;;;;;;11.05;6.45;;;1.90;99.90;;;;;;4902427;29;20059;-67
2021/10/26 05:02:04;;;;;;;10.75;6.25;;;2.00;99.90;;;;;;4909983;29;20054;-66
2021/10/26 05:04:30;;;;;;;12.70;5.88;;;2.10;99.90;;;;;;4903930;29;20035;-66
2021/10/26 05:06:55;;;;;;;9.77;5.55;;;2.10;99.90;;;;;;4904133;29;20031;-67
2021/10/26 05:09:21;;;;;;;9.27;5.30;;;2.20;99.90;;;;;;4905638;29;20552;-66
2021/10/26 05:11:47;;;;;;;11.52;6.97;;;2.20;99.90;;;;;;4902809;29;20029;-66
2021/10/26 05:14:13;;;;;;;10.98;6.38;;;2.30;99.90;;;;;;4900656;29;20056;-66
2021/10/26 05:16:39;;;;;;;17.30;8.40;;;2.30;99.90;;;;;;4901686;29;20039;-67
2021/10/26 05:19:07;;;;;;;10.27;5.70;;;2.40;99.90;;;;;;4908165;29;20438;-67
2021/10/26 05:21:33;;;;;;;9.20;5.38;;;2.40;99.90;;;;;;4905720;29;20035;-66
2021/10/26 05:23:59;;;;;;;10.18;5.70;;;2.40;99.90;;;;;;4906206;29;20036;-66
2021/10/26 05:26:25;;;;;;;8.55;5.22;;;2.40;99.90;;;;;;4909223;29;20028;-66
2021/10/26 05:28:51;;;;;;;11.48;5.78;;;2.40;99.90;;;;;;4905522;29;20036;-67
2021/10/26 05:31:17;;;;;;;10.75;5.85;;;2.40;99.90;;;;;;4896866;29;20044;-67
2021/10/26 05:33:43;;;;;;;9.85;6.38;;;2.40;99.90;;;;;;4900098;29;20869;-67
2021/10/26 05:36:09;;;;;;;8.73;6.07;;;2.40;99.90;;;;;;4900066;29;20032;-67
2021/10/26 05:38:35;;;;;;;10.48;7.30;;;2.50;99.90;;;;;;4899054;29;20036;-66
2021/10/26 05:41:02;;;;;;;9.45;7.50;;;2.50;99.90;;;;;;4909595;29;20084;-66
2021/10/26 05:43:27;;;;;;;10.27;6.53;;;2.60;99.90;;;;;;4898444;29;20546;-66
2021/10/26 05:45:53;;;;;;;9.75;5.97;;;2.60;99.90;;;;;;4906546;29;20025;-66
2021/10/26 05:48:19;;;;;;;11.20;6.82;;;2.60;99.90;;;;;;4907763;29;20028;-66
2021/10/26 05:50:46;;;;;;;11.20;6.45;;;2.70;99.90;;;;;;4902153;29;20031;-66
2021/10/26 05:53:12;;;;;;;13.68;6.30;;;2.70;99.90;;;;;;4897666;29;20055;-66
2021/10/26 05:55:38;;;;;;;11.88;6.78;;;2.70;99.90;;;;;;4894951;29;20116;-66
2021/10/26 05:58:05;;;;;;;11.88;6.07;;;2.70;99.90;;;;;;4899028;29;20036;-66
2021/10/26 06:00:31;;;;;;;9.75;5.60;;;2.80;99.90;;;;;;4896184;29;20032;-66
2021/10/26 06:02:57;;;;;;;9.80;5.40;;;2.80;99.90;;;;;;4896864;29;20033;-66
2021/10/26 06:05:23;;;;;;;11.73;6.70;;;2.80;99.90;;;;;;4898395;29;20087;-66
2021/10/26 06:07:49;;;;;;;10.20;6.30;;;2.80;99.90;;;;;;4897029;29;20473;-66
2021/10/26 06:10:15;;;;;;;10.18;5.93;;;2.80;99.90;;;;;;4899496;29;20032;-67
2021/10/26 06:12:51;;;;;;;13.05;7.07;;;2.90;99.90;;;;;;4906276;29;20039;-67
2021/10/26 06:15:17;;;;;;;14.68;7.10;;;2.90;99.90;;;;;;4903404;29;20044;-66
2021/10/26 06:17:42;;;;;;;14.15;7.88;;;3.00;99.90;;;;;;4904842;29;20034;-66
2021/10/26 06:20:10;;;;;;;13.93;8.52;;;3.00;99.90;;;;;;4905708;29;20059;-66
2021/10/26 06:22:36;;;;;;;13.63;8.07;;;3.00;99.90;;;;;;4907828;29;20021;-67
2021/10/26 06:25:03;;;;;;;11.25;7.38;;;3.20;99.90;;;;;;4907621;29;20044;-66
2021/10/26 06:27:29;;;;;;;12.00;8.10;;;3.20;99.90;;;;;;4920251;29;20035;-66
2021/10/26 06:29:55;;;;;;;14.88;8.10;;;3.30;99.90;;;;;;4908342;29;20028;-66
2021/10/26 06:32:21;;;;;;;12.00;6.97;;;3.30;99.90;;;;;;4906516;29;20040;-66
2021/10/26 06:34:46;;;;;;;11.65;6.72;;;3.30;99.90;;;;;;4903984;29;20043;-66
2021/10/26 06:37:12;;;;;;;13.57;8.35;;;3.30;99.90;;;;;;4907863;29;20044;-66
2021/10/26 06:39:38;;;;;;;16.02;8.48;;;3.40;99.90;;;;;;4905009;29;20099;-66
2021/10/26 06:42:03;;;;;;;13.02;7.85;;;3.40;99.90;;;;;;4908551;29;20028;-68
2021/10/26 06:44:30;;;;;;;13.60;8.52;;;3.50;99.90;;;;;;4910343;29;20021;-67
2021/10/26 06:46:55;;;;;;;16.77;8.20;;;3.60;99.90;;;;;;4925686;29;20031;-66
2021/10/26 06:49:21;;;;;;;18.85;7.88;;;3.60;99.90;;;;;;4907121;29;20028;-66
2021/10/26 06:51:47;;;;;;;13.45;8.07;;;3.70;99.90;;;;;;4924583;28;20032;-66
2021/10/26 06:54:12;;;;;;;15.07;9.00;;;3.80;99.90;;;;;;4910224;29;20399;-66
2021/10/26 06:56:38;;;;;;;11.18;7.07;;;3.90;99.90;;;;;;4923676;29;20051;-66
2021/10/26 06:59:04;;;;;;;14.50;8.27;;;3.90;99.90;;;;;;4910171;29;20040;-66
2021/10/26 07:01:29;;;;;;;17.33;8.75;;;4.00;99.90;;;;;;4908626;29;20115;-66
2021/10/26 07:03:55;;;;;;;16.92;8.52;;;4.20;99.90;;;;;;4908771;29;20039;-66
2021/10/26 07:06:21;;;;;;;17.63;9.25;;;4.30;99.90;;;;;;4912817;29;20473;-66
2021/10/26 07:08:46;;;;;;;14.50;8.40;;;4.30;99.90;;;;;;4923736;29;20115;-66
2021/10/26 07:11:12;;;;;;;15.98;8.85;;;4.50;99.90;;;;;;4911503;29;20175;-66
2021/10/26 07:13:39;;;;;;;14.48;7.82;;;4.60;99.90;;;;;;4908168;29;20040;-66
2021/10/26 07:16:08;;;;;;;17.88;9.10;;;4.70;99.90;;;;;;4910847;29;20036;-66
2021/10/26 07:18:34;;;;;;;13.48;8.32;;;4.80;99.90;;;;;;4908079;29;20040;-66
2021/10/26 07:21:00;;;;;;;17.10;10.50;;;4.90;99.90;;;;;;4909448;29;20044;-67
2021/10/26 07:23:26;;;;;;;19.48;9.30;;;5.00;99.90;;;;;;4908345;29;20030;-67
2021/10/26 07:25:52;;;;;;;16.52;8.18;;;5.00;99.90;;;;;;4909055;29;20032;-67
2021/10/26 07:28:18;;;;;;;21.60;8.85;;;5.10;99.90;;;;;;4909099;29;20055;-66
2021/10/26 07:30:45;;;;;;;13.38;8.88;;;5.20;99.90;;;;;;4910559;29;20040;-67
2021/10/26 07:33:18;;;;;;;16.60;9.43;;;5.20;99.90;;;;;;4908197;29;20751;-67
2021/10/26 07:35:45;;;;;;;17.33;9.02;;;5.40;99.90;;;;;;4909855;29;20031;-67
2021/10/26 07:38:15;;;;;;;15.55;8.43;;;5.40;99.90;;;;;;4908100;29;20043;-67
2021/10/26 07:40:40;;;;;;;15.77;8.68;;;5.50;99.90;;;;;;4905374;29;20036;-67
2021/10/26 07:43:06;;;;;;;14.65;8.85;;;5.60;99.90;;;;;;4909746;29;20032;-67
2021/10/26 07:45:32;;;;;;;15.55;9.27;;;5.60;99.90;;;;;;4910079;29;20075;-67
2021/10/26 07:47:58;;;;;;;16.60;8.65;;;5.60;99.90;;;;;;4910336;29;20035;-67
2021/10/26 07:50:23;;;;;;;22.15;9.60;;;5.70;99.90;;;;;;4910344;29;20032;-67
2021/10/26 07:52:49;;;;;;;18.30;11.50;;;5.80;99.90;;;;;;4903338;29;20103;-68
2021/10/26 07:55:15;;;;;;;18.17;11.23;;;5.80;99.90;;;;;;4903361;29;20120;-67
2021/10/26 07:57:41;;;;;;;18.98;9.52;;;5.90;99.90;;;;;;4906241;29;20068;-67
2021/10/26 08:00:08;;;;;;;16.45;9.90;;;6.00;99.90;;;;;;4906875;29;20028;-67
2021/10/26 08:02:33;;;;;;;16.38;9.27;;;6.00;99.90;;;;;;4903357;29;20032;-67
2021/10/26 08:04:59;;;;;;;15.82;9.73;;;6.10;99.90;;;;;;4903705;29;20028;-67
2021/10/26 08:07:26;;;;;;;16.55;9.80;;;6.20;99.90;;;;;;4902718;29;20024;-68
2021/10/26 08:09:53;;;;;;;19.55;11.85;;;6.20;99.90;;;;;;4904106;29;20047;-67
2021/10/26 08:12:20;;;;;;;18.35;9.88;;;6.30;99.90;;;;;;4903859;29;20059;-67
2021/10/26 08:14:46;;;;;;;16.08;9.25;;;6.40;99.90;;;;;;4906763;29;20044;-68
2021/10/26 08:17:12;;;;;;;15.32;9.40;;;6.50;99.90;;;;;;4905139;29;20043;-67
2021/10/26 08:19:42;;;;;;;19.08;10.50;;;6.50;99.90;;;;;;4905578;29;20032;-67
2021/10/26 08:22:13;;;;;;;20.65;9.48;;;6.60;99.90;;;;;;4905271;29;20628;-68
2021/10/26 08:24:40;;;;;;;15.00;9.30;;;6.70;99.90;;;;;;4901904;29;20024;-66
2021/10/26 08:27:09;;;;;;;18.08;9.02;;;6.80;99.90;;;;;;4904669;29;20027;-66
2021/10/26 08:37:08;;;;;;;14.93;9.32;;;7.20;99.90;;;;;;4905730;29;20051;-66
2021/10/26 08:39:38;;;;;;;18.42;10.05;;;7.20;99.90;;;;;;4905354;29;20032;-66
2021/10/26 08:42:05;;;;;;;20.73;10.15;;;7.40;99.90;;;;;;4903979;29;20104;-67
2021/10/26 08:44:31;;;;;;;17.50;9.15;;;7.40;99.90;;;;;;4905247;29;20067;-67
2021/10/26 08:46:58;;;;;;;15.98;8.98;;;7.50;99.90;;;;;;4902937;29;20028;-67
2021/10/26 08:49:25;;;;;;;18.30;10.30;;;7.60;99.90;;;;;;4905175;29;20056;-68
2021/10/26 08:51:52;;;;;;;19.27;10.20;;;7.70;99.90;;;;;;4903437;29;20031;-67
2021/10/26 08:54:19;;;;;;;14.25;9.43;;;7.80;99.90;;;;;;4904177;29;20044;-67
2021/10/26 08:56:48;;;;;;;17.13;9.32;;;7.90;99.90;;;;;;4902998;29;20111;-67
2021/10/26 08:59:22;;;;;;;17.33;9.38;;;7.90;99.90;;;;;;4903398;29;20035;-67
2021/10/26 09:01:50;;;;;;;17.48;9.90;;;8.00;99.90;;;;;;4918063;29;20085;-67
2021/10/26 09:04:16;;;;;;;17.38;9.02;;;8.00;99.90;;;;;;4906530;29;20028;-67
2021/10/26 09:06:46;;;;;;;18.20;9.43;;;8.00;99.90;;;;;;4902556;29;20191;-67
2021/10/26 09:09:25;;;;;;;18.42;9.25;;;8.10;99.90;;;;;;4904830;29;20063;-67
2021/10/26 09:17:51;;;;;;;15.18;8.73;;;8.30;99.90;;;;;;4906879;29;20047;-67
2021/10/26 09:20:24;;;;;;;16.33;9.00;;;8.50;99.90;;;;;;4903228;29;20071;-67
2021/10/26 09:22:58;;;;;;;17.38;9.98;;;8.50;99.90;;;;;;4905330;29;20087;-67
2021/10/26 09:25:37;;;;;;;16.33;8.88;;;8.60;99.90;;;;;;4901620;29;20054;-66
2021/10/26 09:28:12;;;;;;;17.58;9.52;;;8.60;99.90;;;;;;4903948;29;20032;-66
2021/10/26 09:30:38;;;;;;;18.25;9.48;;;8.80;99.90;;;;;;4903585;29;20036;-67
2021/10/26 09:33:07;;;;;;;15.57;9.23;;;8.90;99.90;;;;;;4903500;29;20032;-67
2021/10/26 09:35:34;;;;;;;17.67;9.85;;;8.90;99.90;;;;;;4919265;29;20024;-67
2021/10/26 09:38:00;;;;;;;16.05;8.93;;;9.10;99.90;;;;;;4903630;29;20063;-67
2021/10/26 09:40:40;;;;;;;14.30;8.35;;;9.10;99.90;;;;;;4902166;29;20035;-67
2021/10/26 09:43:06;;;;;;;21.02;8.70;;;9.20;99.90;;;;;;4901490;29;20434;-67
2021/10/26 09:45:33;;;;;;;15.35;8.38;;;9.30;99.90;;;;;;4904067;29;20039;-67
2021/10/26 09:48:20;;;;;;;17.98;9.40;;;9.30;99.90;;;;;;4902418;29;20033;-66
2021/10/26 09:50:46;;;;;;;16.83;8.88;;;9.40;99.90;;;;;;4900236;29;20402;-66
2021/10/26 09:53:16;;;;;;;17.92;9.20;;;9.60;99.90;;;;;;4902134;29;20567;-66
2021/10/26 09:55:46;;;;;;;17.85;8.93;;;9.60;99.90;;;;;;4903479;29;20032;-68
2021/10/26 09:58:20;;;;;;;18.05;8.35;;;9.60;99.90;;;;;;4901854;29;20397;-67
2021/10/26 10:00:48;;;;;;;16.55;8.25;;;9.60;99.90;;;;;;4902614;29;20555;-66
2021/10/26 10:03:25;;;;;;;14.52;8.65;;;9.60;99.90;;;;;;4903698;29;20035;-67
2021/10/26 10:06:01;;;;;;;15.98;8.48;;;9.70;99.90;;;;;;4917190;29;20028;-66
2021/10/26 10:08:34;;;;;;;18.13;9.60;;;9.80;99.90;;;;;;4903100;29;20036;-67
2021/10/26 10:11:13;;;;;;;19.00;10.05;;;9.80;99.90;;;;;;4901939;29;20033;-67
2021/10/26 10:13:40;;;;;;;14.77;8.15;;;9.90;99.90;;;;;;4905547;29;20573;-67
2021/10/26 10:16:17;;;;;;;16.70;8.88;;;9.90;99.90;;;;;;4904904;29;20035;-67
2021/10/26 10:18:44;;;;;;;15.18;7.95;;;9.90;99.90;;;;;;4907530;29;20087;-67
2021/10/26 10:21:13;;;;;;;17.52;9.23;;;10.00;99.90;;;;;;4907147;29;20128;-67
2021/10/26 10:23:44;;;;;;;13.80;8.50;;;10.00;99.90;;;;;;4905028;29;20115;-67
2021/10/26 10:26:15;;;;;;;13.52;8.60;;;10.10;99.90;;;;;;4910400;29;20032;-67
2021/10/26 10:28:45;;;;;;;13.20;8.82;;;10.10;99.90;;;;;;4908366;29;20433;-67
2021/10/26 10:31:23;;;;;;;16.60;8.45;;;10.10;99.90;;;;;;4906968;29;20115;-66
2021/10/26 10:33:50;;;;;;;17.73;10.00;;;10.10;99.90;;;;;;4908836;29;20047;-66
2021/10/26 10:36:18;;;;;;;17.55;8.52;;;10.20;99.90;;;;;;4908284;29;20075;-66
2021/10/26 10:38:45;;;;;;;16.98;8.77;;;10.30;99.90;;;;;;4906497;29;20150;-66
2021/10/26 10:41:34;;;;;;;16.42;8.63;;;10.40;99.90;;;;;;4905938;29;20504;-66
2021/10/26 10:44:05;;;;;;;13.63;7.88;;;10.40;99.90;;;;;;4904514;29;21630;-66
2021/10/26 10:46:56;;;;;;;19.88;8.68;;;10.50;99.90;;;;;;4915907;29;20028;-66
2021/10/26 10:49:22;;;;;;;13.80;7.75;;;10.60;99.90;;;;;;4907999;29;20032;-66
2021/10/26 10:51:57;;;;;;;13.10;7.75;;;10.60;99.90;;;;;;4905212;29;20036;-66
2021/10/26 10:54:35;;;;;;;12.45;7.90;;;10.60;99.90;;;;;;4906726;29;20092;-66
2021/10/26 10:57:21;;;;;;;13.20;7.03;;;10.70;99.90;;;;;;4907250;29;20059;-67
2021/10/26 10:59:51;;;;;;;12.70;7.35;;;10.70;99.20;;;;;;4919918;29;20127;-66
2021/10/26 11:02:32;;;;;;;12.43;7.82;;;10.80;99.90;;;;;;4920092;29;20060;-67
2021/10/26 11:04:58;;;;;;;9.82;6.38;;;10.90;99.90;;;;;;4905661;29;20499;-67
2021/10/26 11:07:42;;;;;;;12.68;7.38;;;11.00;99.80;;;;;;4905977;29;20078;-67
2021/10/26 11:10:14;;;;;;;15.38;7.55;;;11.10;98.70;;;;;;4902558;29;20039;-66
2021/10/26 11:12:42;;;;;;;10.43;6.50;;;11.00;99.20;;;;;;4923984;29;20074;-66
2021/10/26 11:15:09;;;;;;;12.10;6.68;;;11.00;98.40;;;;;;4911026;29;20067;-66
2021/10/26 11:20:04;;;;;;;11.32;7.10;;;11.00;99.30;;;;;;4914527;29;20071;-66
2021/10/26 11:22:52;;;;;;;12.40;6.65;;;11.10;98.50;;;;;;4911937;29;20485;-66
2021/10/26 11:25:17;;;;;;;10.13;6.05;;;11.20;98.30;;;;;;4908380;29;20035;-66
2021/10/26 11:27:43;;;;;;;8.07;5.18;;;11.30;97.40;;;;;;4912434;29;20078;-66
2021/10/26 11:30:27;;;;;;;6.78;4.57;;;11.50;96.70;;;;;;4912287;29;20036;-66
2021/10/26 11:33:12;;;;;;;8.07;5.15;;;11.50;95.30;;;;;;4910702;29;20563;-67
2021/10/26 11:36:07;;;;;;;11.00;4.85;;;11.60;96.40;;;;;;4902025;29;20039;-66
2021/10/26 11:38:38;;;;;;;11.38;4.85;;;11.70;96.00;;;;;;4911788;29;20031;-66
2021/10/26 11:41:11;;;;;;;8.20;6.57;;;11.60;94.10;;;;;;4928208;29;20039;-66
2021/10/26 11:43:43;;;;;;;10.57;5.88;;;11.50;95.40;;;;;;4928125;29;20031;-66
2021/10/26 11:46:18;;;;;;;9.38;5.90;;;11.60;95.40;;;;;;4912962;29;20032;-66
2021/10/26 11:49:17;;;;;;;8.23;5.60;;;11.80;96.00;;;;;;4914056;29;20040;-66
2021/10/26 11:51:51;;;;;;;10.60;5.95;;;11.70;94.50;;;;;;4922250;29;20573;-66
2021/10/26 11:54:23;;;;;;;8.15;4.95;;;11.60;95.10;;;;;;4908174;29;20032;-67
2021/10/26 11:56:51;;;;;;;9.25;4.88;;;11.70;95.10;;;;;;4925052;29;20412;-67
2021/10/26 11:59:24;;;;;;;7.38;4.18;;;11.80;95.60;;;;;;4916653;29;20743;-66
2021/10/26 12:01:59;;;;;;;10.05;4.43;;;11.90;93.10;;;;;;4913326;29;20115;-66
2021/10/26 12:04:31;;;;;;;6.70;4.00;;;11.80;92.90;;;;;;4912184;29;20023;-66
2021/10/26 12:07:00;;;;;;;5.88;4.15;;;11.80;92.60;;;;;;4911239;29;20066;-67
2021/10/26 12:09:39;;;;;;;7.63;4.40;;;11.80;92.70;;;;;;4917972;29;20028;-66
2021/10/26 12:12:26;;;;;;;7.60;4.28;;;11.80;92.90;;;;;;4917555;29;20031;-66
2021/10/26 12:15:00;;;;;;;8.38;4.60;;;11.90;92.70;;;;;;4912964;29;20040;-66
2021/10/26 12:17:36;;;;;;;8.13;4.00;;;11.90;92.40;;;;;;4911802;29;20048;-66
2021/10/26 12:20:08;;;;;;;7.55;3.83;;;11.90;92.60;;;;;;4911231;29;20040;-66
2021/10/26 12:22:35;;;;;;;7.97;4.10;;;12.00;93.60;;;;;;4914697;29;20027;-67
2021/10/26 12:25:31;;;;;;;6.80;4.47;;;12.00;92.10;;;;;;4911306;29;20797;-67
2021/10/26 12:28:00;;;;;;;7.25;4.20;;;12.00;92.70;;;;;;4919606;29;20024;-67
2021/10/26 12:30:49;;;;;;;7.05;4.20;;;12.10;92.70;;;;;;4915474;29;20032;-67
2021/10/26 12:33:23;;;;;;;5.63;3.75;;;12.10;91.80;;;;;;4911366;29;20143;-67
2021/10/26 12:36:05;;;;;;;4.90;3.40;;;12.00;91.50;;;;;;4913597;29;20036;-67
2021/10/26 12:38:38;;;;;;;7.25;3.45;;;12.10;92.70;;;;;;4912247;29;20079;-67
2021/10/26 12:41:06;;;;;;;6.80;3.28;;;12.10;92.20;;;;;;4909274;29;20036;-67
2021/10/26 12:43:32;;;;;;;5.10;3.45;;;12.20;91.70;;;;;;4915478;29;20035;-67
2021/10/26 12:46:00;;;;;;;4.18;2.80;;;12.10;91.90;;;;;;4912956;29;20087;-67
2021/10/26 12:48:34;;;;;;;5.57;2.70;;;12.20;91.80;;;;;;4915481;29;20021;-67
2021/10/26 12:51:03;;;;;;;6.15;3.28;;;12.30;92.00;;;;;;4913370;29;20079;-67
2021/10/26 12:53:40;;;;;;;6.03;3.50;;;12.30;91.10;;;;;;4911916;29;20054;-67
2021/10/26 12:56:27;;;;;;;5.30;3.08;;;12.40;91.00;;;;;;4903002;29;20162;-67
2021/10/26 12:58:54;;;;;;;4.40;2.80;;;12.50;90.70;;;;;;4908810;29;20533;-67
2021/10/26 13:01:34;;;;;;;6.85;3.10;;;12.40;91.40;;;;;;4899625;29;20029;-67
2021/10/26 13:04:06;;;;;;;3.97;2.95;;;12.60;90.90;;;;;;4908058;29;20036;-66
2021/10/26 13:06:35;;;;;;;4.90;3.35;;;12.60;90.00;;;;;;4908459;29;20288;-66
2021/10/26 13:09:04;;;;;;;5.75;3.47;;;12.60;90.00;;;;;;4907317;29;20127;-66
2021/10/26 13:11:32;;;;;;;4.10;3.20;;;12.50;89.70;;;;;;4905116;29;20044;-67
2021/10/26 13:14:01;;;;;;;5.55;3.58;;;12.50;89.30;;;;;;4907810;29;20394;-67